Time;durP1;ratioP1;P1;durP2;ratioP2;P2;SDS_P1;SDS_P2;PMS_P1;PMS_P2;Temp;Humidity;BMP_temperature;BMP_pressure;BME280_temperature;BME280_humidity;BME280_pressure;Samples;Min_cycle;Max_cycle;Signal;HPM_P1;HPM_P2
2022/04/21 00:00:08;;;;;;;314.48;94.75;;;;;;;5.82;81.63;99640.94;342220;28;1842;-74
2022/04/21 00:00:19;;;;;;;314.42;94.55;;;;;;;5.85;81.77;99635.66;345089;28;1390;-74
2022/04/21 00:00:29;;;;;;;312.48;93.40;;;;;;;5.85;81.72;99635.66;345404;28;889;-74
2022/04/21 00:00:40;;;;;;;312.53;93.47;;;;;;;5.82;81.73;99640.94;342489;28;984;-74
2022/04/21 00:00:51;;;;;;;313.13;93.78;;;;;;;5.80;81.58;99647.03;342647;28;1572;-74
2022/04/21 00:01:01;;;;;;;316.07;94.37;;;;;;;5.74;81.91;99636.78;344356;28;1383;-74
2022/04/21 00:01:11;;;;;;;317.43;95.50;;;;;;;5.79;81.86;99645.31;343064;28;1161;-74
2022/04/21 00:01:22;;;;;;;316.20;94.20;;;;;;;5.76;81.61;99645.38;345281;28;893;-74
2022/04/21 00:01:34;;;;;;;314.80;94.30;;;;;;;5.75;81.85;99643.69;345158;28;917;-74
2022/04/21 00:01:44;;;;;;;314.15;94.43;;;;;;;5.76;81.99;99641.06;345065;28;1539;-74
2022/04/21 00:01:54;;;;;;;314.13;93.78;;;;;;;5.76;81.78;99640.19;343842;28;849;-75
2022/04/21 00:02:05;;;;;;;315.37;93.70;;;;;;;5.78;82.09;99643.63;343616;28;1191;-75
2022/04/21 00:02:15;;;;;;;315.93;93.73;;;;;;;5.78;82.30;99646.22;343904;28;896;-76
2022/04/21 00:02:26;;;;;;;316.55;94.68;;;;;;;5.76;82.05;99650.59;342354;28;1359;-75
2022/04/21 00:02:36;;;;;;;315.20;93.70;;;;;;;5.74;82.05;99642.81;343486;28;1794;-75
2022/04/21 00:02:47;;;;;;;310.25;90.70;;;;;;;5.71;82.38;99644.63;345105;28;1330;-75
2022/04/21 00:02:57;;;;;;;307.33;89.22;;;;;;;5.69;82.24;99649.84;346444;28;1383;-75
2022/04/21 00:03:08;;;;;;;307.73;90.07;;;;;;;5.68;82.48;99643.81;344011;28;864;-75
2022/04/21 00:03:18;;;;;;;312.42;92.45;;;;;;;5.69;82.53;99640.31;342446;28;1071;-75
2022/04/21 00:03:29;;;;;;;315.20;93.23;;;;;;;5.71;82.36;99642.03;343666;28;1292;-75
2022/04/21 00:03:39;;;;;;;316.33;93.15;;;;;;;5.68;82.22;99646.41;345730;28;1475;-75
2022/04/21 00:03:49;;;;;;;316.63;93.93;;;;;;;5.67;82.61;99646.44;346517;28;1294;-75
2022/04/21 00:04:00;;;;;;;315.52;94.35;;;;;;;5.65;82.59;99643.88;342446;28;858;-75
2022/04/21 00:04:10;;;;;;;315.03;94.50;;;;;;;5.65;82.44;99643.00;342566;28;913;-74
2022/04/21 00:04:20;;;;;;;313.92;94.43;;;;;;;5.63;82.72;99645.63;342361;28;1251;-74
2022/04/21 00:04:31;;;;;;;314.23;93.80;;;;;;;5.66;82.52;99637.78;347891;28;1290;-74
2022/04/21 00:04:41;;;;;;;313.10;92.75;;;;;;;5.67;82.67;99647.28;344421;28;963;-75
2022/04/21 00:04:52;;;;;;;312.57;92.33;;;;;;;5.69;82.35;99648.09;343317;28;1592;-75
2022/04/21 00:05:03;;;;;;;310.52;91.35;;;;;;;5.69;82.36;99644.66;345302;28;1262;-74
2022/04/21 00:05:13;;;;;;;312.55;92.90;;;;;;;5.70;82.61;99646.38;344057;28;1249;-74
2022/04/21 00:05:24;;;;;;;313.00;92.50;;;;;;;5.70;82.73;99646.38;342507;28;817;-74
2022/04/21 00:05:34;;;;;;;314.45;93.82;;;;;;;5.74;82.76;99641.97;344676;28;1477;-74
2022/04/21 00:05:45;;;;;;;315.90;95.37;;;;;;;5.76;82.74;99640.19;343836;28;868;-75
2022/04/21 00:05:55;;;;;;;316.45;95.97;;;;;;;5.79;82.42;99646.19;345117;28;1616;-75
2022/04/21 00:06:05;;;;;;;315.03;94.93;;;;;;;5.81;82.38;99648.75;342244;28;1224;-75
2022/04/21 00:06:16;;;;;;;314.65;93.78;;;;;;;5.82;82.42;99647.84;345773;28;1373;-75
2022/04/21 00:06:27;;;;;;;315.97;94.07;;;;;;;5.82;82.58;99638.31;343850;28;1236;-75
2022/04/21 00:06:37;;;;;;;317.80;94.93;;;;;;;5.86;82.50;99641.72;342029;28;1756;-74
2022/04/21 00:06:47;;;;;;;318.00;94.87;;;;;;;5.85;82.39;99642.59;342461;28;996;-74
2022/04/21 00:06:58;;;;;;;315.92;93.30;;;;;;;5.82;82.23;99647.84;344583;28;2280;-74
2022/04/21 00:07:08;;;;;;;315.10;91.93;;;;;;;5.76;82.07;99641.06;345048;28;1094;-74
2022/04/21 00:07:18;;;;;;;315.00;92.53;;;;;;;5.74;82.24;99644.56;342426;28;1268;-75
2022/04/21 00:07:29;;;;;;;315.67;93.83;;;;;;;5.74;82.45;99644.56;344951;28;1686;-75
2022/04/21 00:07:40;;;;;;;314.83;94.93;;;;;;;5.76;82.50;99650.59;339276;29;4748;-75
2022/04/21 00:07:50;;;;;;;314.52;94.82;;;;;;;5.78;82.30;99646.22;340539;29;5315;-74
2022/04/21 00:08:01;;;;;;;315.77;94.50;;;;;;;5.79;82.15;99637.53;341026;29;794;-74
2022/04/21 00:08:15;;;;;;;316.70;94.50;;;;;;;5.77;82.49;99647.94;343628;28;3303;-74
2022/04/21 00:08:25;;;;;;;315.08;93.78;;;;;;;5.78;82.33;99644.47;342660;28;1284;-74
2022/04/21 00:08:36;;;;;;;312.70;93.33;;;;;;;5.80;82.07;99636.66;342370;28;1508;-74
2022/04/21 00:08:47;;;;;;;314.85;94.43;;;;;;;5.82;82.28;99640.06;342498;28;1263;-74
2022/04/21 00:08:57;;;;;;;315.00;94.83;;;;;;;5.82;82.20;99643.53;342766;28;904;-74
2022/04/21 00:09:08;;;;;;;315.27;94.53;;;;;;;5.82;82.41;99651.31;343495;28;1123;-74
2022/04/21 00:09:18;;;;;;;312.23;92.07;;;;;;;5.79;82.37;99640.97;342334;28;815;-74
2022/04/21 00:09:28;;;;;;;312.37;93.07;;;;;;;5.81;82.35;99657.38;343595;28;903;-74
2022/04/21 00:09:39;;;;;;;311.48;93.28;;;;;;;5.83;82.51;99641.78;344444;28;1216;-74
2022/04/21 00:09:49;;;;;;;313.10;93.83;;;;;;;5.83;82.33;99650.41;346447;28;1555;-75
2022/04/21 00:10:00;;;;;;;312.40;92.60;;;;;;;5.84;82.22;99646.09;346326;28;1333;-74
2022/04/21 00:10:11;;;;;;;311.52;91.25;;;;;;;5.85;81.94;99645.19;342424;28;1700;-74
2022/04/21 00:10:21;;;;;;;312.17;92.00;;;;;;;5.87;81.82;99648.63;345090;28;860;-74
2022/04/21 00:10:32;;;;;;;313.20;93.22;;;;;;;5.85;82.22;99640.00;343846;28;827;-74
2022/04/21 00:10:42;;;;;;;312.70;94.37;;;;;;;5.85;82.19;99643.47;343910;28;892;-74
2022/04/21 00:10:53;;;;;;;310.92;92.60;;;;;;;5.86;82.03;99646.91;341136;28;1352;-74
2022/04/21 00:11:03;;;;;;;311.02;91.55;;;;;;;5.84;82.01;99646.09;342270;28;1406;-74
2022/04/21 00:11:16;;;;;;;313.00;91.53;;;;;;;5.80;81.88;99650.50;344988;28;1181;-74
2022/04/21 00:11:27;;;;;;;313.95;93.18;;;;;;;5.80;81.96;99637.50;345434;28;1295;-75
2022/04/21 00:11:37;;;;;;;312.33;92.53;;;;;;;5.80;82.07;99647.03;345419;28;1043;-75
2022/04/21 00:11:47;;;;;;;311.77;92.00;;;;;;;5.83;82.21;99652.16;341324;28;1918;-75
2022/04/21 00:11:58;;;;;;;311.95;92.10;;;;;;;5.82;82.33;99643.53;343760;28;843;-75
2022/04/21 00:12:09;;;;;;;311.63;92.20;;;;;;;5.82;82.10;99650.47;345043;28;1407;-75
2022/04/21 00:12:20;;;;;;;311.38;92.05;;;;;;;5.82;82.16;99650.47;343697;28;873;-74
2022/04/21 00:12:30;;;;;;;309.63;90.65;;;;;;;5.82;82.16;99651.31;342400;28;2229;-74
2022/04/21 00:12:40;;;;;;;311.02;91.32;;;;;;;5.83;82.25;99652.16;340977;29;1110;-74
2022/04/21 00:12:51;;;;;;;311.37;91.27;;;;;;;5.82;82.11;99647.84;343618;28;1285;-74
2022/04/21 00:13:02;;;;;;;311.23;91.32;;;;;;;5.80;82.08;99650.50;342358;28;1344;-75
2022/04/21 00:13:12;;;;;;;310.35;92.15;;;;;;;5.78;82.17;99647.06;342438;28;1376;-74
2022/04/21 00:13:23;;;;;;;311.73;93.63;;;;;;;5.77;82.08;99641.91;343680;28;1176;-74
2022/04/21 00:13:34;;;;;;;312.33;93.90;;;;;;;5.76;81.99;99642.78;343803;28;1188;-75
2022/04/21 00:13:44;;;;;;;313.63;94.07;;;;;;;5.77;81.92;99642.75;345085;28;1238;-75
2022/04/21 00:13:54;;;;;;;312.92;93.53;;;;;;;5.77;81.90;99647.09;343779;28;904;-74
2022/04/21 00:14:05;;;;;;;313.93;93.83;;;;;;;5.77;81.76;99641.91;345403;28;877;-74
2022/04/21 00:14:15;;;;;;;315.65;93.97;;;;;;;5.76;82.17;99648.84;346790;28;1256;-75
2022/04/21 00:14:26;;;;;;;318.20;94.47;;;;;;;5.79;81.92;99650.53;341870;28;1358;-74
2022/04/21 00:14:36;;;;;;;317.42;94.25;;;;;;;5.81;81.74;99641.81;339434;29;1442;-74
2022/04/21 00:14:46;;;;;;;316.00;95.17;;;;;;;5.83;81.82;99649.56;342291;28;1188;-74
2022/04/21 00:14:57;;;;;;;313.63;94.55;;;;;;;5.84;81.67;99643.50;344919;28;1229;-74
2022/04/21 00:15:08;;;;;;;312.60;94.27;;;;;;;5.85;81.76;99640.00;342303;28;1362;-74
2022/04/21 00:15:18;;;;;;;311.60;93.25;;;;;;;5.85;82.16;99645.19;340815;28;1406;-74
2022/04/21 00:15:29;;;;;;;312.25;93.38;;;;;;;5.85;81.64;99645.19;343445;28;1213;-74
2022/04/21 00:15:39;;;;;;;311.57;92.97;;;;;;;5.86;81.47;99646.91;343378;28;1365;-75
2022/04/21 00:15:49;;;;;;;311.10;93.30;;;;;;;5.88;81.82;99645.13;342256;28;862;-75
2022/04/21 00:16:00;;;;;;;310.03;92.83;;;;;;;5.88;81.50;99647.72;344754;28;1200;-74
2022/04/21 00:16:11;;;;;;;311.58;93.60;;;;;;;5.88;81.55;99648.59;343612;28;1488;-76
2022/04/21 00:16:21;;;;;;;311.25;92.93;;;;;;;5.89;81.64;99644.28;343716;28;640;-74
2022/04/21 00:16:32;;;;;;;312.87;93.17;;;;;;;5.91;81.51;99645.09;340893;29;1174;-74
2022/04/21 00:16:42;;;;;;;313.40;93.70;;;;;;;5.90;81.24;99646.84;339498;29;3331;-74
2022/04/21 00:16:54;;;;;;;314.35;95.28;;;;;;;5.91;81.43;99642.50;341941;28;4349;-74
2022/04/21 00:17:05;;;;;;;314.20;96.05;;;;;;;5.92;81.28;99652.00;343224;28;3015;-74
2022/04/21 00:17:15;;;;;;;316.15;95.95;;;;;;;5.91;81.34;99648.56;346058;28;1836;-74
2022/04/21 00:17:26;;;;;;;316.40;95.20;;;;;;;5.93;81.50;99648.53;344736;28;6081;-74
2022/04/21 00:17:36;;;;;;;315.65;94.93;;;;;;;5.93;81.21;99651.97;339746;28;1230;-74
2022/04/21 00:17:47;;;;;;;313.70;94.67;;;;;;;5.93;81.37;99644.19;340943;29;844;-74
2022/04/21 00:17:58;;;;;;;314.27;95.35;;;;;;;5.91;81.45;99645.09;340931;29;802;-75
2022/04/21 00:18:09;;;;;;;313.17;93.95;;;;;;;5.92;81.19;99647.66;341107;28;1424;-74
2022/04/21 00:18:19;;;;;;;312.90;93.00;;;;;;;5.93;81.40;99653.72;340890;28;1187;-74
2022/04/21 00:18:30;;;;;;;312.00;92.03;;;;;;;5.92;81.04;99649.41;344755;28;1242;-74
2022/04/21 00:18:40;;;;;;;311.53;92.33;;;;;;;5.92;80.88;99652.00;343752;28;840;-75
2022/04/21 00:18:51;;;;;;;311.17;92.60;;;;;;;5.91;81.16;99647.69;340952;28;1512;-74
2022/04/21 00:19:01;;;;;;;310.97;92.00;;;;;;;5.90;81.26;99649.44;345000;28;792;-74
2022/04/21 00:19:12;;;;;;;310.83;93.03;;;;;;;5.90;81.05;99653.78;346274;28;908;-74
2022/04/21 00:19:22;;;;;;;311.23;93.47;;;;;;;5.89;80.77;99652.06;344054;28;1441;-74
2022/04/21 00:19:32;;;;;;;310.33;92.97;;;;;;;5.88;81.00;99661.56;344347;28;1352;-74
2022/04/21 00:19:43;;;;;;;312.53;93.17;;;;;;;5.87;81.09;99659.00;344717;28;1338;-74
2022/04/21 00:19:53;;;;;;;313.65;93.40;;;;;;;5.85;81.08;99659.03;343486;28;817;-74
2022/04/21 00:20:04;;;;;;;314.97;94.70;;;;;;;5.86;81.29;99662.50;343571;28;838;-74
2022/04/21 00:20:15;;;;;;;315.33;94.82;;;;;;;5.85;81.45;99660.78;342358;28;1063;-74
2022/04/21 00:20:25;;;;;;;314.77;95.20;;;;;;;5.84;81.56;99657.31;340959;29;837;-74
2022/04/21 00:20:36;;;;;;;314.10;94.30;;;;;;;5.82;81.44;99660.84;342181;28;1436;-74
2022/04/21 00:20:46;;;;;;;312.27;93.87;;;;;;;5.82;81.25;99663.44;342351;28;886;-75
2022/04/21 00:21:01;;;;;;;311.00;92.28;;;;;;;5.82;81.29;99658.25;342445;28;809;-74
2022/04/21 00:21:11;;;;;;;311.27;92.50;;;;;;;5.82;81.31;99660.84;342362;28;932;-74
2022/04/21 00:23:25;;;;;;;311.13;93.05;;;;;;;5.81;81.06;99659.97;339618;28;1350;-74
2022/04/21 00:23:33;;;;;;;311.13;91.13;;;;;;;5.79;81.18;99661.75;338495;29;849;-74
2022/04/21 00:23:44;;;;;;;310.83;90.37;;;;;;;5.80;81.14;99662.63;339608;29;807;-74
2022/04/21 00:23:55;;;;;;;312.42;91.18;;;;;;;5.78;81.23;99659.19;338356;29;944;-74
2022/04/21 00:24:05;;;;;;;310.80;90.50;;;;;;;5.77;80.99;99658.34;339316;29;1394;-75
2022/04/21 00:24:16;;;;;;;309.73;90.82;;;;;;;5.73;81.10;99658.44;341419;28;909;-75
2022/04/21 00:24:26;;;;;;;309.47;91.80;;;;;;;5.74;81.47;99657.53;340447;29;1144;-75
2022/04/21 00:24:37;;;;;;;310.63;92.05;;;;;;;5.68;81.35;99658.53;339399;29;822;-75
2022/04/21 00:24:47;;;;;;;313.13;93.90;;;;;;;5.68;81.09;99655.94;342855;28;1308;-75
2022/04/21 00:24:57;;;;;;;313.17;93.88;;;;;;;5.67;81.30;99657.66;344703;28;1215;-75
2022/04/21 00:25:08;;;;;;;313.70;94.23;;;;;;;5.69;81.01;99660.22;344906;28;1420;-75
2022/04/21 00:25:19;;;;;;;314.70;93.15;;;;;;;5.71;81.24;99647.22;342332;28;905;-74
2022/04/21 00:25:30;;;;;;;315.52;92.60;;;;;;;5.74;81.30;99663.59;340806;29;1227;-74
2022/04/21 00:25:40;;;;;;;316.17;93.57;;;;;;;5.73;81.24;99661.03;342343;28;821;-74
2022/04/21 00:25:50;;;;;;;314.43;93.07;;;;;;;5.72;80.85;99660.16;342248;28;885;-74
2022/04/21 00:26:01;;;;;;;314.20;93.53;;;;;;;5.71;81.05;99652.41;338627;28;2713;-74
2022/04/21 00:26:13;;;;;;;313.97;93.50;;;;;;;5.71;80.96;99653.28;340532;28;3145;-74
2022/04/21 00:26:23;;;;;;;318.02;95.72;;;;;;;5.72;81.04;99651.53;341970;28;2101;-74
2022/04/21 00:26:34;;;;;;;317.70;95.75;;;;;;;5.73;81.47;99651.50;341372;28;2983;-74
2022/04/21 00:26:44;;;;;;;316.47;96.23;;;;;;;5.74;81.21;99652.34;345779;28;1742;-74
2022/04/21 00:26:55;;;;;;;311.83;94.05;;;;;;;5.74;81.21;99657.53;343628;28;859;-74
2022/04/21 00:27:05;;;;;;;310.40;92.70;;;;;;;5.75;81.31;99659.25;342258;28;1239;-74
2022/04/21 00:27:16;;;;;;;310.55;92.00;;;;;;;5.73;81.06;99643.72;342472;28;1073;-74
2022/04/21 00:27:26;;;;;;;311.70;91.97;;;;;;;5.76;80.96;99650.59;342583;28;1299;-74
2022/04/21 00:27:40;;;;;;;313.00;93.00;;;;;;;5.76;81.15;99650.59;344670;28;1603;-74
2022/04/21 00:27:51;;;;;;;310.52;92.60;;;;;;;5.75;81.33;99656.66;343755;28;1301;-75
2022/04/21 00:28:01;;;;;;;311.70;92.68;;;;;;;5.72;80.84;99659.31;342261;28;953;-75
2022/04/21 00:28:12;;;;;;;313.97;94.27;;;;;;;5.76;81.28;99658.38;342114;28;1380;-76
2022/04/21 00:28:22;;;;;;;317.48;95.47;;;;;;;5.76;81.16;99656.63;342228;28;1007;-76
2022/04/21 00:28:33;;;;;;;316.23;95.60;;;;;;;5.74;80.93;99661.00;344835;28;813;-76
2022/04/21 00:28:44;;;;;;;315.08;94.60;;;;;;;5.76;80.96;99660.97;342223;28;1384;-76
2022/04/21 00:28:54;;;;;;;315.58;94.53;;;;;;;5.76;81.32;99655.78;342886;28;1478;-76
2022/04/21 00:29:04;;;;;;;314.27;93.73;;;;;;;5.76;80.97;99653.19;344305;28;1438;-74
2022/04/21 00:29:15;;;;;;;312.38;92.90;;;;;;;5.77;80.78;99660.06;343222;28;1170;-74
2022/04/21 00:29:25;;;;;;;311.90;92.97;;;;;;;5.77;81.24;99658.34;342743;28;1115;-73
2022/04/21 00:29:36;;;;;;;313.02;93.35;;;;;;;5.75;80.82;99654.91;340345;28;1247;-75
2022/04/21 00:29:46;;;;;;;312.80;93.20;;;;;;;5.78;81.00;99654.00;342243;28;1348;-75
2022/04/21 00:29:57;;;;;;;311.67;92.93;;;;;;;5.76;80.98;99661.81;343892;28;1720;-75
2022/04/21 00:30:08;;;;;;;310.10;92.57;;;;;;;5.71;80.67;99657.59;345098;28;1550;-75
2022/04/21 00:30:19;;;;;;;310.48;93.00;;;;;;;5.68;81.15;99653.31;344982;28;861;-75
2022/04/21 00:30:29;;;;;;;310.70;92.68;;;;;;;5.70;81.19;99659.34;343765;28;1117;-76
2022/04/21 00:30:39;;;;;;;311.75;93.30;;;;;;;5.71;81.30;99658.47;343596;28;821;-75
2022/04/21 00:30:50;;;;;;;313.20;93.17;;;;;;;5.72;81.04;99654.97;343587;28;1023;-75
2022/04/21 00:31:00;;;;;;;312.92;93.55;;;;;;;5.75;81.20;99656.66;340471;28;1119;-74
2022/04/21 00:31:11;;;;;;;313.37;93.03;;;;;;;5.75;80.83;99664.44;343519;28;1389;-74
2022/04/21 00:31:22;;;;;;;312.52;92.88;;;;;;;5.72;81.07;99656.72;343784;28;916;-75
2022/04/21 00:31:32;;;;;;;312.35;92.35;;;;;;;5.71;81.16;99657.59;344970;28;1374;-75
2022/04/21 00:31:43;;;;;;;312.13;92.20;;;;;;;5.72;81.20;99664.50;344955;28;830;-74
2022/04/21 00:31:53;;;;;;;311.75;91.82;;;;;;;5.69;81.16;99663.69;345039;28;1967;-74
2022/04/21 00:32:04;;;;;;;311.60;91.90;;;;;;;5.69;81.05;99658.50;344861;28;1067;-74
2022/04/21 00:32:14;;;;;;;311.57;92.50;;;;;;;5.71;80.95;99662.81;342296;28;1229;-75
2022/04/21 00:32:25;;;;;;;310.40;92.60;;;;;;;5.69;81.18;99661.09;343557;28;811;-75
2022/04/21 00:32:36;;;;;;;309.53;92.57;;;;;;;5.71;81.33;99662.81;342830;28;1462;-75
2022/04/21 00:32:46;;;;;;;309.45;92.43;;;;;;;5.72;81.27;99660.16;341262;28;1357;-75
2022/04/21 00:32:57;;;;;;;309.80;92.90;;;;;;;5.75;81.45;99661.84;341026;29;1079;-75
2022/04/21 00:33:07;;;;;;;310.10;92.70;;;;;;;5.77;81.28;99662.69;342270;28;1213;-75
2022/04/21 00:33:18;;;;;;;313.67;94.07;;;;;;;5.77;81.03;99662.69;342063;28;1303;-74
2022/04/21 00:33:28;;;;;;;314.08;93.43;;;;;;;5.79;81.39;99660.91;342196;28;1345;-74
2022/04/21 00:33:39;;;;;;;314.73;94.50;;;;;;;5.81;81.05;99659.97;343038;28;865;-74
2022/04/21 00:33:49;;;;;;;313.93;93.33;;;;;;;5.81;81.56;99656.53;342107;28;1441;-74
2022/04/21 00:33:59;;;;;;;313.83;93.70;;;;;;;5.82;81.24;99660.84;344406;28;1226;-75
2022/04/21 00:34:10;;;;;;;312.53;92.60;;;;;;;5.79;81.41;99655.72;346336;28;880;-75
2022/04/21 00:34:22;;;;;;;311.17;92.35;;;;;;;5.79;81.09;99659.16;343362;28;1741;-75
2022/04/21 00:34:36;;;;;;;310.65;91.80;;;;;;;5.79;81.13;99656.56;346250;28;935;-75
2022/04/21 00:34:47;;;;;;;310.35;91.32;;;;;;;5.79;80.98;99655.72;342650;28;1307;-74
2022/04/21 00:34:57;;;;;;;310.90;90.87;;;;;;;5.75;80.95;99659.25;344773;28;1235;-74
2022/04/21 00:35:11;;;;;;;311.60;91.13;;;;;;;5.72;81.05;99664.50;341261;28;3346;-75
2022/04/21 00:35:21;;;;;;;311.98;91.86;;;;;;;5.68;81.08;99664.56;340417;29;2767;-74
2022/04/21 00:35:32;;;;;;;311.77;92.53;;;;;;;5.67;81.36;99662.84;342226;28;861;-74
2022/04/21 00:35:42;;;;;;;311.67;92.23;;;;;;;5.65;80.85;99663.78;340565;28;2983;-74
2022/04/21 00:35:53;;;;;;;316.17;93.90;;;;;;;5.65;81.13;99659.44;347327;28;1346;-74
2022/04/21 00:36:03;;;;;;;317.57;94.40;;;;;;;5.68;81.38;99658.53;343475;28;1063;-74
2022/04/21 00:36:14;;;;;;;317.50;93.88;;;;;;;5.71;81.14;99663.66;342390;28;731;-74
2022/04/21 00:36:25;;;;;;;312.85;91.45;;;;;;;5.73;81.04;99658.44;340840;29;1198;-74
2022/04/21 00:36:35;;;;;;;310.73;90.15;;;;;;;5.74;81.30;99657.53;339555;28;1256;-74
2022/04/21 00:36:45;;;;;;;310.13;91.53;;;;;;;5.74;81.32;99667.94;343666;28;1222;-74
2022/04/21 00:36:56;;;;;;;311.67;92.97;;;;;;;5.77;81.40;99657.47;343559;28;951;-76
2022/04/21 00:37:06;;;;;;;310.97;93.50;;;;;;;5.79;81.15;99655.72;343600;28;1031;-76
2022/04/21 00:37:17;;;;;;;311.33;93.70;;;;;;;5.79;81.03;99661.75;340954;29;818;-76
2022/04/21 00:37:27;;;;;;;311.60;94.25;;;;;;;5.79;81.37;99661.75;342099;28;1501;-75
2022/04/21 00:37:48;;;;;;;312.15;93.78;;;;;;;5.81;81.06;99654.78;342966;28;1909;-74
2022/04/21 00:37:58;;;;;;;311.35;91.63;;;;;;;5.84;81.47;99651.28;343974;28;1554;-74
2022/04/21 00:38:09;;;;;;;311.45;91.72;;;;;;;5.82;80.75;99661.69;341955;28;865;-75
2022/04/21 00:38:19;;;;;;;314.67;93.43;;;;;;;5.83;81.13;99657.34;341052;29;810;-75
2022/04/21 00:38:29;;;;;;;314.40;93.78;;;;;;;5.84;81.02;99659.06;339518;29;1221;-75
2022/04/21 00:38:40;;;;;;;314.63;94.03;;;;;;;5.81;81.02;99661.72;343340;28;1468;-75
2022/04/21 00:38:50;;;;;;;313.38;94.18;;;;;;;5.79;81.00;99658.31;344873;28;1239;-75
2022/04/21 00:39:01;;;;;;;314.33;95.13;;;;;;;5.76;81.10;99663.56;343554;28;889;-75
2022/04/21 00:39:11;;;;;;;314.02;94.38;;;;;;;5.73;81.22;99659.28;341061;28;1327;-75
2022/04/21 00:39:21;;;;;;;311.90;91.97;;;;;;;5.74;81.22;99658.41;343506;28;1456;-75
2022/04/21 00:39:32;;;;;;;311.70;91.73;;;;;;;5.74;81.18;99657.53;341927;28;2001;-75
2022/04/21 00:39:42;;;;;;;311.83;92.13;;;;;;;5.76;81.41;99660.97;343014;28;1389;-75
2022/04/21 00:39:53;;;;;;;311.92;92.85;;;;;;;5.77;81.07;99660.94;345031;28;1195;-75
2022/04/21 00:40:04;;;;;;;311.03;92.87;;;;;;;5.77;81.55;99654.88;344989;28;891;-75
2022/04/21 00:40:14;;;;;;;311.75;93.53;;;;;;;5.79;81.32;99663.50;340526;28;1654;-74
2022/04/21 00:40:27;;;;;;;313.27;94.78;;;;;;;5.80;81.29;99662.63;343920;28;864;-76
2022/04/21 00:40:38;;;;;;;312.15;93.40;;;;;;;5.80;81.21;99662.63;344366;28;1389;-74
2022/04/21 00:40:49;;;;;;;310.93;92.03;;;;;;;5.79;80.93;99661.75;344961;28;1340;-74
2022/04/21 00:41:00;;;;;;;312.10;92.72;;;;;;;5.81;80.95;99667.78;343511;28;1436;-74
2022/04/21 00:41:11;;;;;;;313.40;93.80;;;;;;;5.83;81.00;99667.75;343736;28;798;-74
2022/04/21 00:41:21;;;;;;;314.30;94.10;;;;;;;5.84;80.83;99669.47;341067;29;1062;-75
2022/04/21 00:41:31;;;;;;;311.77;92.50;;;;;;;5.84;81.31;99670.31;343540;28;762;-75
2022/04/21 00:41:42;;;;;;;311.10;92.87;;;;;;;5.83;80.78;99662.56;342141;28;1303;-75
2022/04/21 00:41:56;;;;;;;310.48;92.53;;;;;;;5.81;80.63;99665.19;338137;29;1313;-75
2022/04/21 00:42:07;;;;;;;311.42;92.05;;;;;;;5.84;81.15;99666.84;340871;29;846;-75
2022/04/21 00:42:18;;;;;;;310.98;91.65;;;;;;;5.82;80.96;99661.69;340640;29;1501;-75
2022/04/21 00:42:28;;;;;;;310.50;91.93;;;;;;;5.81;80.64;99664.31;340927;28;1413;-75
2022/04/21 00:42:39;;;;;;;309.67;92.40;;;;;;;5.83;81.17;99670.34;342486;28;1378;-75
2022/04/21 00:42:49;;;;;;;311.40;92.00;;;;;;;5.83;80.93;99659.97;343693;28;1306;-75
2022/04/21 00:43:00;;;;;;;312.57;92.93;;;;;;;5.82;80.63;99660.84;342114;28;1428;-75
2022/04/21 00:43:10;;;;;;;313.50;93.78;;;;;;;5.82;80.85;99666.03;342901;28;1099;-75
2022/04/21 00:43:22;;;;;;;314.20;93.75;;;;;;;5.78;80.69;99661.78;340871;28;1737;-75
2022/04/21 00:43:33;;;;;;;314.60;92.60;;;;;;;5.77;80.86;99666.13;341359;28;1379;-75
2022/04/21 00:43:44;;;;;;;314.25;92.45;;;;;;;5.75;80.83;99659.25;340982;28;1653;-75
2022/04/21 00:43:54;;;;;;;313.80;92.97;;;;;;;5.76;80.86;99666.16;343411;28;1625;-75
2022/04/21 00:44:04;;;;;;;313.73;93.50;;;;;;;5.77;80.87;99662.69;340775;28;1508;-75
2022/04/21 00:44:15;;;;;;;312.13;92.30;;;;;;;5.75;81.11;99654.06;342463;28;3849;-75
2022/04/21 00:44:26;;;;;;;310.43;91.50;;;;;;;5.76;81.03;99666.16;341640;28;4946;-76
2022/04/21 00:44:36;;;;;;;309.50;91.35;;;;;;;5.73;80.74;99655.84;339444;29;1964;-75
2022/04/21 00:44:49;;;;;;;310.90;91.72;;;;;;;5.74;80.76;99667.94;340958;28;1983;-75
2022/04/21 00:44:59;;;;;;;311.00;91.18;;;;;;;5.74;80.93;99662.75;340676;28;3009;-75
2022/04/21 00:45:10;;;;;;;308.63;89.87;;;;;;;5.74;80.88;99662.75;343597;28;1175;-75
2022/04/21 00:45:21;;;;;;;309.80;90.10;;;;;;;5.77;80.77;99662.69;341862;28;1520;-75
2022/04/21 00:45:32;;;;;;;309.67;89.80;;;;;;;5.78;80.83;99665.25;343883;28;1317;-75
2022/04/21 00:45:42;;;;;;;312.45;92.22;;;;;;;5.78;80.58;99660.06;343750;28;932;-75
2022/04/21 00:45:52;;;;;;;311.73;91.63;;;;;;;5.79;80.73;99666.94;345509;28;1470;-75
2022/04/21 00:46:03;;;;;;;312.80;92.28;;;;;;;5.81;80.92;99665.19;344308;28;1554;-75
2022/04/21 00:46:17;;;;;;;312.77;92.27;;;;;;;5.82;80.98;99664.28;343632;28;892;-75
2022/04/21 00:46:27;;;;;;;312.92;93.03;;;;;;;5.82;80.65;99659.09;340921;29;900;-75
2022/04/21 00:46:38;;;;;;;311.43;92.27;;;;;;;5.83;80.38;99665.16;344903;28;1308;-75
2022/04/21 00:46:48;;;;;;;311.70;91.75;;;;;;;5.86;80.85;99672.88;344879;28;1322;-75
2022/04/21 00:47:00;;;;;;;310.97;90.80;;;;;;;5.85;80.90;99671.16;340878;28;1327;-75
2022/04/21 00:47:11;;;;;;;310.48;90.55;;;;;;;5.85;80.48;99669.44;342076;28;1394;-76
2022/04/21 00:47:21;;;;;;;310.50;91.67;;;;;;;5.86;80.21;99671.13;340886;28;1331;-76
2022/04/21 00:47:32;;;;;;;310.23;91.90;;;;;;;5.88;80.27;99671.09;340607;29;1534;-76
2022/04/21 00:47:45;;;;;;;311.58;92.53;;;;;;;5.88;80.39;99676.31;339874;29;1642;-76
2022/04/21 00:47:57;;;;;;;311.10;92.28;;;;;;;5.86;80.33;99668.53;343763;28;1454;-76
2022/04/21 00:48:07;;;;;;;310.60;91.68;;;;;;;5.90;80.40;99677.16;343183;28;1315;-74
2022/04/21 00:48:17;;;;;;;309.90;90.93;;;;;;;5.89;80.39;99670.25;342831;28;1663;-73
2022/04/21 00:48:29;;;;;;;310.85;91.47;;;;;;;5.90;80.23;99671.97;342461;28;1285;-75
2022/04/21 00:48:39;;;;;;;311.65;92.32;;;;;;;5.89;80.45;99672.84;342030;28;960;-75
2022/04/21 00:48:49;;;;;;;312.40;92.80;;;;;;;5.90;79.99;99672.81;339604;29;1222;-75
2022/04/21 00:49:01;;;;;;;312.50;92.80;;;;;;;5.90;80.39;99674.56;340861;29;802;-74
2022/04/21 00:49:11;;;;;;;312.60;92.90;;;;;;;5.90;80.19;99669.38;343815;28;1256;-75
2022/04/21 00:49:22;;;;;;;312.10;92.85;;;;;;;5.89;79.85;99672.84;344509;28;1035;-75
2022/04/21 00:49:32;;;;;;;311.43;92.67;;;;;;;5.91;80.20;99676.28;342203;28;1192;-75
2022/04/21 00:49:44;;;;;;;309.75;91.30;;;;;;;5.92;80.06;99675.38;343541;28;853;-75
2022/04/21 00:49:54;;;;;;;309.38;91.13;;;;;;;5.92;79.92;99678.84;343417;28;869;-75
2022/04/21 00:50:05;;;;;;;308.37;89.70;;;;;;;5.90;80.18;99670.22;342284;28;817;-75
2022/04/21 00:50:22;;;;;;;309.65;89.68;;;;;;;5.89;80.16;99673.72;342325;28;1151;-75
2022/04/21 00:50:37;;;;;;;309.13;90.25;;;;;;;5.91;80.21;99676.28;345051;28;825;-75
2022/04/21 00:50:47;;;;;;;309.20;92.00;;;;;;;5.91;80.14;99676.28;342646;28;1618;-75
2022/04/21 00:50:58;;;;;;;311.33;93.80;;;;;;;5.90;80.05;99679.75;342056;28;1210;-75
2022/04/21 00:51:08;;;;;;;313.10;94.90;;;;;;;5.90;79.92;99674.56;341829;28;952;-75
2022/04/21 00:51:18;;;;;;;313.50;94.00;;;;;;;5.90;80.16;99670.22;340979;29;960;-74
2022/04/21 00:51:29;;;;;;;313.98;93.35;;;;;;;5.91;80.40;99676.28;346025;28;1340;-74
2022/04/21 00:51:39;;;;;;;314.03;92.83;;;;;;;5.90;80.03;99675.41;343546;28;1359;-74
2022/04/21 00:51:50;;;;;;;312.80;93.68;;;;;;;5.91;79.85;99677.13;343465;28;1222;-75
2022/04/21 00:52:00;;;;;;;310.60;92.50;;;;;;;5.91;80.27;99676.28;347661;28;1918;-75
2022/04/21 00:52:10;;;;;;;309.40;92.20;;;;;;;5.90;80.18;99665.03;343509;28;1327;-75
2022/04/21 00:52:21;;;;;;;312.07;93.53;;;;;;;5.90;79.92;99679.75;344886;28;943;-74
2022/04/21 00:52:32;;;;;;;313.33;93.90;;;;;;;5.89;80.17;99673.72;345382;28;1511;-74
2022/04/21 00:52:42;;;;;;;314.13;93.47;;;;;;;5.91;80.24;99676.28;342081;28;1300;-75
2022/04/21 00:52:53;;;;;;;311.38;91.32;;;;;;;5.89;79.94;99678.91;340994;28;1320;-75